sensor_id;sensor_type;location;lat;lon;timestamp;noise_LAeq;noise_LA_min;noise_LA_max;noise_LA01;noise_LA95
76100;Laerm;64828;49.956;8.636;2023-05-20T00:00:08;37.20;34.43;39.90;;
76100;Laerm;64828;49.956;8.636;2023-05-20T00:00:24;38.56;35.43;41.90;;
76100;Laerm;64828;49.956;8.636;2023-05-20T00:00:40;38.48;35.89;42.63;;
76100;Laerm;64828;49.956;8.636;2023-05-20T00:00:55;37.56;35.05;40.86;;
76100;Laerm;64828;49.956;8.636;2023-05-20T00:01:11;36.70;34.51;39.13;;
76100;Laerm;64828;49.956;8.636;2023-05-20T00:01:26;36.34;34.17;40.92;;
76100;Laerm;64828;49.956;8.636;2023-05-20T00:01:42;36.05;34.22;38.35;;
76100;Laerm;64828;49.956;8.636;2023-05-20T00:01:58;35.49;33.76;37.62;;
76100;Laerm;64828;49.956;8.636;2023-05-20T00:02:13;35.69;33.90;38.42;;
76100;Laerm;64828;49.956;8.636;2023-05-20T00:02:30;35.54;33.60;37.93;;
76100;Laerm;64828;49.956;8.636;2023-05-20T00:02:45;35.36;33.73;37.83;;
76100;Laerm;64828;49.956;8.636;2023-05-20T00:03:01;35.50;33.58;37.78;;
76100;Laerm;64828;49.956;8.636;2023-05-20T00:03:16;36.05;34.01;39.27;;
76100;Laerm;64828;49.956;8.636;2023-05-20T00:03:34;36.23;34.13;40.12;;
76100;Laerm;64828;49.956;8.636;2023-05-20T00:03:49;36.19;34.20;38.25;;
76100;Laerm;64828;49.956;8.636;2023-05-20T00:04:05;36.66;34.43;39.99;;
76100;Laerm;64828;49.956;8.636;2023-05-20T00:04:21;36.54;34.12;41.62;;
76100;Laerm;64828;49.956;8.636;2023-05-20T00:04:36;35.51;33.76;37.67;;
76100;Laerm;64828;49.956;8.636;2023-05-20T00:04:52;35.52;33.52;37.85;;
76100;Laerm;64828;49.956;8.636;2023-05-20T00:05:08;35.58;33.97;37.64;;
76100;Laerm;64828;49.956;8.636;2023-05-20T00:05:24;35.49;33.58;44.25;;
76100;Laerm;64828;49.956;8.636;2023-05-20T00:05:39;35.87;33.95;38.43;;
76100;Laerm;64828;49.956;8.636;2023-05-20T00:05:55;35.75;33.82;38.00;;
76100;Laerm;64828;49.956;8.636;2023-05-20T00:06:11;36.01;34.10;39.03;;
76100;Laerm;64828;49.956;8.636;2023-05-20T00:06:26;38.39;34.66;41.85;;
76100;Laerm;64828;49.956;8.636;2023-05-20T00:06:42;40.53;37.38;44.17;;
76100;Laerm;64828;49.956;8.636;2023-05-20T00:06:57;41.37;36.82;51.96;;
76100;Laerm;64828;49.956;8.636;2023-05-20T00:07:13;38.20;35.09;41.45;;
76100;Laerm;64828;49.956;8.636;2023-05-20T00:07:28;36.56;34.24;38.98;;
76100;Laerm;64828;49.956;8.636;2023-05-20T00:07:44;36.52;33.73;48.11;;
76100;Laerm;64828;49.956;8.636;2023-05-20T00:07:59;35.75;34.13;41.30;;
76100;Laerm;64828;49.956;8.636;2023-05-20T00:08:18;35.83;34.06;44.52;;
76100;Laerm;64828;49.956;8.636;2023-05-20T00:08:34;35.76;34.08;38.04;;
76100;Laerm;64828;49.956;8.636;2023-05-20T00:08:50;35.53;33.52;37.46;;
76100;Laerm;64828;49.956;8.636;2023-05-20T00:09:05;36.11;33.78;39.27;;
76100;Laerm;64828;49.956;8.636;2023-05-20T00:09:21;35.92;33.99;38.34;;
76100;Laerm;64828;49.956;8.636;2023-05-20T00:09:38;36.05;33.84;39.84;;
76100;Laerm;64828;49.956;8.636;2023-05-20T00:09:54;35.70;33.90;38.01;;
76100;Laerm;64828;49.956;8.636;2023-05-20T00:10:10;36.14;33.73;38.90;;
76100;Laerm;64828;49.956;8.636;2023-05-20T00:10:26;36.01;33.97;38.90;;
76100;Laerm;64828;49.956;8.636;2023-05-20T00:10:42;36.04;34.05;38.60;;
76100;Laerm;64828;49.956;8.636;2023-05-20T00:10:57;35.35;33.81;37.45;;
76100;Laerm;64828;49.956;8.636;2023-05-20T00:11:13;35.59;33.62;43.34;;
76100;Laerm;64828;49.956;8.636;2023-05-20T00:11:28;35.50;33.83;37.27;;
76100;Laerm;64828;49.956;8.636;2023-05-20T00:11:45;35.43;33.45;37.62;;
76100;Laerm;64828;49.956;8.636;2023-05-20T00:12:00;35.30;33.82;37.42;;
76100;Laerm;64828;49.956;8.636;2023-05-20T00:12:17;35.22;33.34;37.06;;
76100;Laerm;64828;49.956;8.636;2023-05-20T00:12:32;35.27;33.57;37.04;;
76100;Laerm;64828;49.956;8.636;2023-05-20T00:12:49;35.17;33.62;37.31;;
76100;Laerm;64828;49.956;8.636;2023-05-20T00:13:04;35.35;33.53;37.45;;
76100;Laerm;64828;49.956;8.636;2023-05-20T00:13:23;35.39;33.57;37.99;;
76100;Laerm;64828;49.956;8.636;2023-05-20T00:13:38;35.02;33.43;36.70;;
76100;Laerm;64828;49.956;8.636;2023-05-20T00:13:54;35.08;33.59;38.06;;
76100;Laerm;64828;49.956;8.636;2023-05-20T00:14:10;35.15;33.43;37.38;;
76100;Laerm;64828;49.956;8.636;2023-05-20T00:14:25;35.07;33.47;37.40;;
76100;Laerm;64828;49.956;8.636;2023-05-20T00:14:41;35.11;33.43;39.13;;
76100;Laerm;64828;49.956;8.636;2023-05-20T00:14:56;35.03;33.60;36.88;;
76100;Laerm;64828;49.956;8.636;2023-05-20T00:15:12;35.37;33.60;37.41;;
76100;Laerm;64828;49.956;8.636;2023-05-20T00:15:28;35.34;33.84;37.02;;
76100;Laerm;64828;49.956;8.636;2023-05-20T00:15:44;35.45;33.66;38.24;;
76100;Laerm;64828;49.956;8.636;2023-05-20T00:15:59;35.15;33.49;37.26;;
76100;Laerm;64828;49.956;8.636;2023-05-20T00:16:15;35.43;33.60;42.02;;
76100;Laerm;64828;49.956;8.636;2023-05-20T00:16:31;35.17;33.48;37.85;;
76100;Laerm;64828;49.956;8.636;2023-05-20T00:16:46;35.08;33.25;37.74;;
76100;Laerm;64828;49.956;8.636;2023-05-20T00:17:02;35.79;33.88;43.30;;
76100;Laerm;64828;49.956;8.636;2023-05-20T00:17:17;35.74;33.90;42.59;;
76100;Laerm;64828;49.956;8.636;2023-05-20T00:17:34;35.74;33.45;39.76;;
76100;Laerm;64828;49.956;8.636;2023-05-20T00:17:50;35.20;33.49;37.19;;
76100;Laerm;64828;49.956;8.636;2023-05-20T00:18:06;35.03;33.54;36.81;;
76100;Laerm;64828;49.956;8.636;2023-05-20T00:18:21;35.06;33.48;42.35;;
76100;Laerm;64828;49.956;8.636;2023-05-20T00:18:37;34.92;33.24;37.02;;
76100;Laerm;64828;49.956;8.636;2023-05-20T00:18:53;35.20;33.11;37.15;;
76100;Laerm;64828;49.956;8.636;2023-05-20T00:19:08;35.43;33.17;43.54;;
76100;Laerm;64828;49.956;8.636;2023-05-20T00:19:24;35.74;33.53;45.21;;
76100;Laerm;64828;49.956;8.636;2023-05-20T00:19:39;35.41;33.49;37.46;;
76100;Laerm;64828;49.956;8.636;2023-05-20T00:19:55;35.02;33.47;37.14;;
76100;Laerm;64828;49.956;8.636;2023-05-20T00:20:11;35.23;33.61;38.63;;
76100;Laerm;64828;49.956;8.636;2023-05-20T00:20:27;35.00;33.32;37.13;;
76100;Laerm;64828;49.956;8.636;2023-05-20T00:20:43;35.25;33.45;38.39;;
76100;Laerm;64828;49.956;8.636;2023-05-20T00:20:58;35.16;33.63;38.35;;
76100;Laerm;64828;49.956;8.636;2023-05-20T00:21:14;34.90;33.47;44.91;;
76100;Laerm;64828;49.956;8.636;2023-05-20T00:21:29;34.66;33.30;36.68;;
76100;Laerm;64828;49.956;8.636;2023-05-20T00:21:45;34.97;33.30;37.06;;
76100;Laerm;64828;49.956;8.636;2023-05-20T00:22:01;35.25;33.57;37.77;;
76100;Laerm;64828;49.956;8.636;2023-05-20T00:22:17;34.89;33.13;39.21;;
76100;Laerm;64828;49.956;8.636;2023-05-20T00:22:32;35.25;33.21;37.09;;
76100;Laerm;64828;49.956;8.636;2023-05-20T00:22:48;35.32;33.69;37.20;;
76100;Laerm;64828;49.956;8.636;2023-05-20T00:23:03;35.71;33.92;39.99;;
76100;Laerm;64828;49.956;8.636;2023-05-20T00:23:19;36.86;33.98;47.56;;
76100;Laerm;64828;49.956;8.636;2023-05-20T00:23:35;35.89;34.13;38.17;;
76100;Laerm;64828;49.956;8.636;2023-05-20T00:23:50;35.51;33.77;37.71;;
76100;Laerm;64828;49.956;8.636;2023-05-20T00:24:06;35.59;34.01;39.28;;
76100;Laerm;64828;49.956;8.636;2023-05-20T00:24:23;35.52;33.65;37.67;;
76100;Laerm;64828;49.956;8.636;2023-05-20T00:24:38;37.57;34.46;41.27;;
76100;Laerm;64828;49.956;8.636;2023-05-20T00:24:54;37.44;34.53;41.10;;
76100;Laerm;64828;49.956;8.636;2023-05-20T00:25:09;40.49;35.95;44.38;;
76100;Laerm;64828;49.956;8.636;2023-05-20T00:25:25;43.07;37.31;47.59;;
76100;Laerm;64828;49.956;8.636;2023-05-20T00:25:41;42.49;37.23;46.62;;
76100;Laerm;64828;49.956;8.636;2023-05-20T00:25:56;42.16;36.88;46.79;;
76100;Laerm;64828;49.956;8.636;2023-05-20T00:26:12;45.85;36.61;50.35;;
76100;Laerm;64828;49.956;8.636;2023-05-20T00:26:28;39.78;35.56;44.66;;
76100;Laerm;64828;49.956;8.636;2023-05-20T00:26:44;36.53;34.87;39.61;;
76100;Laerm;64828;49.956;8.636;2023-05-20T00:26:59;35.95;34.08;37.74;;
76100;Laerm;64828;49.956;8.636;2023-05-20T00:27:15;35.67;33.97;37.64;;
76100;Laerm;64828;49.956;8.636;2023-05-20T00:27:30;35.59;33.75;38.03;;
76100;Laerm;64828;49.956;8.636;2023-05-20T00:27:46;36.72;33.84;41.05;;
76100;Laerm;64828;49.956;8.636;2023-05-20T00:28:02;37.36;34.26;42.17;;
76100;Laerm;64828;49.956;8.636;2023-05-20T00:28:17;37.77;34.35;42.41;;
76100;Laerm;64828;49.956;8.636;2023-05-20T00:28:34;36.99;34.20;42.25;;
76100;Laerm;64828;49.956;8.636;2023-05-20T00:28:49;40.19;33.92;46.16;;
76100;Laerm;64828;49.956;8.636;2023-05-20T00:29:05;42.67;40.71;44.63;;
76100;Laerm;64828;49.956;8.636;2023-05-20T00:29:21;42.92;41.28;44.42;;
76100;Laerm;64828;49.956;8.636;2023-05-20T00:29:37;43.06;41.66;45.90;;
76100;Laerm;64828;49.956;8.636;2023-05-20T00:29:52;43.18;41.86;44.35;;
76100;Laerm;64828;49.956;8.636;2023-05-20T00:30:08;43.23;41.84;44.23;;
76100;Laerm;64828;49.956;8.636;2023-05-20T00:30:25;38.90;34.35;46.66;;
76100;Laerm;64828;49.956;8.636;2023-05-20T00:30:41;35.65;34.05;37.59;;
76100;Laerm;64828;49.956;8.636;2023-05-20T00:30:56;35.66;33.94;37.81;;
76100;Laerm;64828;49.956;8.636;2023-05-20T00:31:12;35.47;33.68;37.30;;
76100;Laerm;64828;49.956;8.636;2023-05-20T00:31:28;35.47;33.67;38.70;;
76100;Laerm;64828;49.956;8.636;2023-05-20T00:31:43;35.70;33.88;40.10;;
76100;Laerm;64828;49.956;8.636;2023-05-20T00:31:59;35.72;33.80;40.05;;
76100;Laerm;64828;49.956;8.636;2023-05-20T00:32:15;36.14;34.02;46.56;;
76100;Laerm;64828;49.956;8.636;2023-05-20T00:32:30;35.32;33.74;37.44;;
76100;Laerm;64828;49.956;8.636;2023-05-20T00:32:46;38.16;33.67;52.76;;
76100;Laerm;64828;49.956;8.636;2023-05-20T00:33:02;35.93;34.02;39.97;;
76100;Laerm;64828;49.956;8.636;2023-05-20T00:33:17;35.93;33.89;41.04;;
76100;Laerm;64828;49.956;8.636;2023-05-20T00:33:33;36.10;34.21;41.20;;
76100;Laerm;64828;49.956;8.636;2023-05-20T00:33:50;35.62;33.69;37.70;;
76100;Laerm;64828;49.956;8.636;2023-05-20T00:34:06;35.61;33.91;37.71;;
76100;Laerm;64828;49.956;8.636;2023-05-20T00:34:22;35.26;33.62;36.98;;
76100;Laerm;64828;49.956;8.636;2023-05-20T00:34:38;36.11;33.99;49.16;;
76100;Laerm;64828;49.956;8.636;2023-05-20T00:35:00;36.11;33.87;39.02;;
76100;Laerm;64828;49.956;8.636;2023-05-20T00:35:16;35.87;33.93;38.24;;
76100;Laerm;64828;49.956;8.636;2023-05-20T00:35:31;36.05;33.99;38.28;;
76100;Laerm;64828;49.956;8.636;2023-05-20T00:35:47;35.80;33.73;38.53;;
76100;Laerm;64828;49.956;8.636;2023-05-20T00:36:03;36.45;34.36;39.73;;
76100;Laerm;64828;49.956;8.636;2023-05-20T00:36:19;35.75;33.89;37.60;;
76100;Laerm;64828;49.956;8.636;2023-05-20T00:36:35;35.60;33.45;45.47;;
76100;Laerm;64828;49.956;8.636;2023-05-20T00:36:50;35.43;33.83;37.08;;
76100;Laerm;64828;49.956;8.636;2023-05-20T00:37:06;35.56;34.00;37.19;;
76100;Laerm;64828;49.956;8.636;2023-05-20T00:37:22;35.34;33.74;37.23;;
76100;Laerm;64828;49.956;8.636;2023-05-20T00:37:37;35.14;33.34;37.27;;
76100;Laerm;64828;49.956;8.636;2023-05-20T00:37:53;35.35;33.48;37.93;;
76100;Laerm;64828;49.956;8.636;2023-05-20T00:38:09;35.80;34.13;38.92;;
76100;Laerm;64828;49.956;8.636;2023-05-20T00:38:24;35.41;33.91;37.35;;
76100;Laerm;64828;49.956;8.636;2023-05-20T00:38:40;35.35;33.66;37.15;;
76100;Laerm;64828;49.956;8.636;2023-05-20T00:38:55;35.30;33.51;43.98;;
76100;Laerm;64828;49.956;8.636;2023-05-20T00:39:11;35.58;33.57;38.08;;
76100;Laerm;64828;49.956;8.636;2023-05-20T00:39:27;35.33;33.74;37.23;;
76100;Laerm;64828;49.956;8.636;2023-05-20T00:39:44;35.40;33.76;37.31;;
76100;Laerm;64828;49.956;8.636;2023-05-20T00:40:00;35.56;33.92;37.51;;
76100;Laerm;64828;49.956;8.636;2023-05-20T00:40:15;36.21;34.31;38.37;;
76100;Laerm;64828;49.956;8.636;2023-05-20T00:40:31;35.98;33.93;37.59;;
76100;Laerm;64828;49.956;8.636;2023-05-20T00:40:47;36.24;34.58;38.69;;
76100;Laerm;64828;49.956;8.636;2023-05-20T00:41:02;36.84;34.44;38.78;;
76100;Laerm;64828;49.956;8.636;2023-05-20T00:41:18;36.47;34.68;40.05;;
76100;Laerm;64828;49.956;8.636;2023-05-20T00:41:34;35.99;33.99;37.89;;
76100;Laerm;64828;49.956;8.636;2023-05-20T00:41:49;36.31;34.26;38.28;;
76100;Laerm;64828;49.956;8.636;2023-05-20T00:42:05;36.21;34.52;38.27;;
76100;Laerm;64828;49.956;8.636;2023-05-20T00:42:26;36.06;34.29;37.84;;
76100;Laerm;64828;49.956;8.636;2023-05-20T00:42:42;35.77;33.72;37.70;;
76100;Laerm;64828;49.956;8.636;2023-05-20T00:42:58;35.46;33.59;37.53;;
76100;Laerm;64828;49.956;8.636;2023-05-20T00:43:13;35.67;33.63;37.56;;
76100;Laerm;64828;49.956;8.636;2023-05-20T00:43:29;35.36;33.68;37.36;;
76100;Laerm;64828;49.956;8.636;2023-05-20T00:43:44;35.24;33.68;40.74;;
76100;Laerm;64828;49.956;8.636;2023-05-20T00:44:00;35.20;33.67;36.93;;
76100;Laerm;64828;49.956;8.636;2023-05-20T00:44:15;35.00;33.36;36.88;;
76100;Laerm;64828;49.956;8.636;2023-05-20T00:44:33;35.38;33.61;40.33;;
76100;Laerm;64828;49.956;8.636;2023-05-20T00:44:48;35.72;33.64;41.30;;
76100;Laerm;64828;49.956;8.636;2023-05-20T00:45:05;35.37;33.78;37.29;;
76100;Laerm;64828;49.956;8.636;2023-05-20T00:45:21;35.30;33.61;37.17;;
76100;Laerm;64828;49.956;8.636;2023-05-20T00:45:37;35.46;33.73;41.58;;
76100;Laerm;64828;49.956;8.636;2023-05-20T00:45:54;35.52;33.91;37.49;;
76100;Laerm;64828;49.956;8.636;2023-05-20T00:46:11;36.03;33.88;38.55;;
76100;Laerm;64828;49.956;8.636;2023-05-20T00:46:27;35.46;33.79;38.57;;
76100;Laerm;64828;49.956;8.636;2023-05-20T00:46:46;35.21;33.53;37.77;;
76100;Laerm;64828;49.956;8.636;2023-05-20T00:47:02;37.29;34.05;43.01;;
76100;Laerm;64828;49.956;8.636;2023-05-20T00:47:23;36.21;34.05;43.37;;
76100;Laerm;64828;49.956;8.636;2023-05-20T00:47:41;36.22;33.64;40.29;;
76100;Laerm;64828;49.956;8.636;2023-05-20T00:47:57;36.25;34.30;39.16;;
76100;Laerm;64828;49.956;8.636;2023-05-20T00:48:15;36.33;34.11;39.51;;
76100;Laerm;64828;49.956;8.636;2023-05-20T00:48:39;35.98;33.81;38.85;;
76100;Laerm;64828;49.956;8.636;2023-05-20T00:48:56;35.41;33.63;37.62;;
76100;Laerm;64828;49.956;8.636;2023-05-20T00:49:13;35.42;33.90;37.23;;
76100;Laerm;64828;49.956;8.636;2023-05-20T00:49:29;35.56;33.80;37.59;;
76100;Laerm;64828;49.956;8.636;2023-05-20T00:49:48;35.56;33.98;37.93;;
76100;Laerm;64828;49.956;8.636;2023-05-20T00:50:05;35.25;33.50;37.27;;
76100;Laerm;64828;49.956;8.636;2023-05-20T00:50:21;35.59;33.58;38.26;;
76100;Laerm;64828;49.956;8.636;2023-05-20T00:50:38;35.57;33.89;38.36;;
76100;Laerm;64828;49.956;8.636;2023-05-20T00:50:54;35.89;34.09;39.70;;
76100;Laerm;64828;49.956;8.636;2023-05-20T00:51:12;35.40;33.80;37.56;;
76100;Laerm;64828;49.956;8.636;2023-05-20T00:51:28;35.71;33.90;37.45;;
76100;Laerm;64828;49.956;8.636;2023-05-20T00:51:46;35.64;33.86;37.93;;
76100;Laerm;64828;49.956;8.636;2023-05-20T00:52:01;35.42;33.78;37.37;;
76100;Laerm;64828;49.956;8.636;2023-05-20T00:52:18;35.38;33.40;37.17;;
76100;Laerm;64828;49.956;8.636;2023-05-20T00:52:35;35.50;33.88;37.61;;
76100;Laerm;64828;49.956;8.636;2023-05-20T00:52:51;35.70;33.98;37.91;;
76100;Laerm;64828;49.956;8.636;2023-05-20T00:53:09;35.43;33.76;37.52;;
76100;Laerm;64828;49.956;8.636;2023-05-20T00:53:25;35.28;33.72;37.26;;
76100;Laerm;64828;49.956;8.636;2023-05-20T00:53:42;35.32;33.65;37.53;;
76100;Laerm;64828;49.956;8.636;2023-05-20T00:53:58;35.42;33.94;44.04;;
76100;Laerm;64828;49.956;8.636;2023-05-20T00:54:13;35.80;34.01;37.75;;
76100;Laerm;64828;49.956;8.636;2023-05-20T00:54:30;35.37;33.46;37.05;;
76100;Laerm;64828;49.956;8.636;2023-05-20T00:54:46;36.67;33.35;40.49;;
76100;Laerm;64828;49.956;8.636;2023-05-20T00:55:02;39.06;34.84;43.05;;
76100;Laerm;64828;49.956;8.636;2023-05-20T00:55:18;41.33;37.54;50.15;;
76100;Laerm;64828;49.956;8.636;2023-05-20T00:55:34;38.78;35.69;41.42;;
76100;Laerm;64828;49.956;8.636;2023-05-20T00:55:50;37.64;34.55;41.59;;
76100;Laerm;64828;49.956;8.636;2023-05-20T00:56:07;35.99;33.96;39.21;;
76100;Laerm;64828;49.956;8.636;2023-05-20T00:56:24;35.64;33.59;44.80;;
76100;Laerm;64828;49.956;8.636;2023-05-20T00:56:41;35.32;33.71;37.12;;
76100;Laerm;64828;49.956;8.636;2023-05-20T00:56:57;35.44;33.73;38.94;;
76100;Laerm;64828;49.956;8.636;2023-05-20T00:57:15;35.45;33.55;38.46;;
76100;Laerm;64828;49.956;8.636;2023-05-20T00:57:31;35.21;33.29;37.42;;
76100;Laerm;64828;49.956;8.636;2023-05-20T00:57:51;35.14;33.50;36.96;;
76100;Laerm;64828;49.956;8.636;2023-05-20T00:58:08;35.98;34.15;37.69;;
76100;Laerm;64828;49.956;8.636;2023-05-20T00:58:23;35.94;34.06;38.04;;
76100;Laerm;64828;49.956;8.636;2023-05-20T00:58:39;35.62;33.88;37.77;;
76100;Laerm;64828;49.956;8.636;2023-05-20T00:58:55;35.84;34.16;37.86;;
76100;Laerm;64828;49.956;8.636;2023-05-20T00:59:11;35.89;33.89;46.55;;
76100;Laerm;64828;49.956;8.636;2023-05-20T00:59:27;35.52;33.92;37.70;;
76100;Laerm;64828;49.956;8.636;2023-05-20T00:59:43;35.60;33.77;38.55;;
76100;Laerm;64828;49.956;8.636;2023-05-20T00:59:59;35.36;33.59;37.04;;
76100;Laerm;64828;49.956;8.636;2023-05-20T01:00:14;35.42;33.62;37.52;;
76100;Laerm;64828;49.956;8.636;2023-05-20T01:00:30;35.43;33.78;37.96;;
76100;Laerm;64828;49.956;8.636;2023-05-20T01:00:46;35.31;33.77;42.34;;
76100;Laerm;64828;49.956;8.636;2023-05-20T01:01:02;35.04;33.55;36.78;;
76100;Laerm;64828;49.956;8.636;2023-05-20T01:01:18;34.96;33.42;36.71;;
76100;Laerm;64828;49.956;8.636;2023-05-20T01:01:33;35.41;33.19;43.90;;
76100;Laerm;64828;49.956;8.636;2023-05-20T01:01:49;35.52;33.84;38.32;;
76100;Laerm;64828;49.956;8.636;2023-05-20T01:02:06;35.16;33.74;37.11;;
76100;Laerm;64828;49.956;8.636;2023-05-20T01:02:22;35.92;33.72;43.73;;
76100;Laerm;64828;49.956;8.636;2023-05-20T01:02:38;35.02;33.46;36.83;;
76100;Laerm;64828;49.956;8.636;2023-05-20T01:02:54;35.73;33.33;44.61;;
76100;Laerm;64828;49.956;8.636;2023-05-20T01:03:11;35.30;33.64;37.15;;
76100;Laerm;64828;49.956;8.636;2023-05-20T01:03:28;35.15;33.58;39.39;;
76100;Laerm;64828;49.956;8.636;2023-05-20T01:03:43;35.14;33.60;36.80;;
76100;Laerm;64828;49.956;8.636;2023-05-20T01:03:59;35.10;33.48;37.31;;
76100;Laerm;64828;49.956;8.636;2023-05-20T01:04:15;35.05;33.64;37.97;;
76100;Laerm;64828;49.956;8.636;2023-05-20T01:04:32;35.23;33.55;37.11;;
76100;Laerm;64828;49.956;8.636;2023-05-20T01:04:47;35.64;33.93;41.50;;
76100;Laerm;64828;49.956;8.636;2023-05-20T01:05:04;35.38;33.61;39.99;;
76100;Laerm;64828;49.956;8.636;2023-05-20T01:05:19;35.51;33.41;38.61;;
76100;Laerm;64828;49.956;8.636;2023-05-20T01:05:35;35.44;33.43;37.80;;
76100;Laerm;64828;49.956;8.636;2023-05-20T01:05:50;35.54;33.87;37.41;;
76100;Laerm;64828;49.956;8.636;2023-05-20T01:06:06;35.64;33.86;37.98;;
76100;Laerm;64828;49.956;8.636;2023-05-20T01:06:22;35.34;33.75;44.38;;
76100;Laerm;64828;49.956;8.636;2023-05-20T01:06:37;35.50;33.56;40.63;;
76100;Laerm;64828;49.956;8.636;2023-05-20T01:06:54;35.72;33.72;45.67;;
76100;Laerm;64828;49.956;8.636;2023-05-20T01:07:10;35.78;33.83;38.50;;
76100;Laerm;64828;49.956;8.636;2023-05-20T01:07:25;36.16;33.94;41.89;;
76100;Laerm;64828;49.956;8.636;2023-05-20T01:07:41;37.72;33.62;42.52;;
76100;Laerm;64828;49.956;8.636;2023-05-20T01:07:57;35.69;33.95;39.30;;
76100;Laerm;64828;49.956;8.636;2023-05-20T01:08:13;35.62;33.59;38.43;;
76100;Laerm;64828;49.956;8.636;2023-05-20T01:08:29;35.70;33.59;40.90;;
76100;Laerm;64828;49.956;8.636;2023-05-20T01:08:44;36.58;33.66;48.85;;
76100;Laerm;64828;49.956;8.636;2023-05-20T01:09:00;35.86;33.79;42.15;;
76100;Laerm;64828;49.956;8.636;2023-05-20T01:09:16;35.47;33.59;37.67;;
76100;Laerm;64828;49.956;8.636;2023-05-20T01:09:32;35.17;33.59;37.00;;
76100;Laerm;64828;49.956;8.636;2023-05-20T01:09:48;34.89;33.34;42.26;;
76100;Laerm;64828;49.956;8.636;2023-05-20T01:10:04;34.80;33.15;36.73;;
76100;Laerm;64828;49.956;8.636;2023-05-20T01:10:24;34.94;33.28;36.76;;
76100;Laerm;64828;49.956;8.636;2023-05-20T01:10:45;34.92;33.28;36.96;;
76100;Laerm;64828;49.956;8.636;2023-05-20T01:11:15;34.85;33.24;36.80;;
76100;Laerm;64828;49.956;8.636;2023-05-20T01:11:48;35.09;33.12;38.10;;
76100;Laerm;64828;49.956;8.636;2023-05-20T01:12:25;35.35;33.71;37.38;;
76100;Laerm;64828;49.956;8.636;2023-05-20T01:12:55;35.80;33.95;38.22;;
76100;Laerm;64828;49.956;8.636;2023-05-20T01:13:19;35.18;33.47;37.09;;
76100;Laerm;64828;49.956;8.636;2023-05-20T01:13:44;35.04;33.55;37.27;;
76100;Laerm;64828;49.956;8.636;2023-05-20T01:14:07;35.20;33.38;37.92;;
76100;Laerm;64828;49.956;8.636;2023-05-20T01:14:29;35.14;33.31;38.25;;
76100;Laerm;64828;49.956;8.636;2023-05-20T01:14:52;35.67;33.92;38.25;;
76100;Laerm;64828;49.956;8.636;2023-05-20T01:15:13;37.03;34.04;40.93;;
76100;Laerm;64828;49.956;8.636;2023-05-20T01:15:30;38.68;35.65;41.49;;
76100;Laerm;64828;49.956;8.636;2023-05-20T01:15:47;36.88;34.74;39.26;;
76100;Laerm;64828;49.956;8.636;2023-05-20T01:16:05;39.89;35.27;45.41;;
76100;Laerm;64828;49.956;8.636;2023-05-20T01:16:23;44.77;41.46;52.51;;
76100;Laerm;64828;49.956;8.636;2023-05-20T01:16:40;40.74;36.52;45.19;;
76100;Laerm;64828;49.956;8.636;2023-05-20T01:17:01;38.05;33.47;42.99;;
76100;Laerm;64828;49.956;8.636;2023-05-20T01:17:26;35.89;33.79;47.19;;
76100;Laerm;64828;49.956;8.636;2023-05-20T01:17:46;35.72;33.73;38.97;;
76100;Laerm;64828;49.956;8.636;2023-05-20T01:18:05;35.77;33.83;39.06;;
76100;Laerm;64828;49.956;8.636;2023-05-20T01:18:27;36.75;34.02;44.38;;
76100;Laerm;64828;49.956;8.636;2023-05-20T01:18:46;37.71;33.74;42.39;;
76100;Laerm;64828;49.956;8.636;2023-05-20T01:20:01;35.67;33.78;38.60;;
76100;Laerm;64828;49.956;8.636;2023-05-20T01:20:01;35.70;33.64;38.78;;
76100;Laerm;64828;49.956;8.636;2023-05-20T01:20:17;35.06;33.27;36.77;;
76100;Laerm;64828;49.956;8.636;2023-05-20T01:20:36;35.16;33.48;37.04;;
76100;Laerm;64828;49.956;8.636;2023-05-20T01:20:54;34.86;33.34;36.73;;
76100;Laerm;64828;49.956;8.636;2023-05-20T01:21:16;35.09;33.48;37.16;;
76100;Laerm;64828;49.956;8.636;2023-05-20T01:21:34;35.13;33.54;37.39;;
76100;Laerm;64828;49.956;8.636;2023-05-20T01:21:53;35.08;33.52;36.98;;
76100;Laerm;64828;49.956;8.636;2023-05-20T01:22:12;35.39;33.50;37.56;;
76100;Laerm;64828;49.956;8.636;2023-05-20T01:22:28;35.55;33.53;38.48;;
76100;Laerm;64828;49.956;8.636;2023-05-20T01:22:55;36.39;34.01;39.23;;
76100;Laerm;64828;49.956;8.636;2023-05-20T01:23:11;36.53;34.24;38.84;;
76100;Laerm;64828;49.956;8.636;2023-05-20T01:23:53;37.03;34.61;39.53;;
76100;Laerm;64828;49.956;8.636;2023-05-20T01:24:09;36.96;34.35;39.74;;
76100;Laerm;64828;49.956;8.636;2023-05-20T01:24:24;36.97;34.39;39.35;;
76100;Laerm;64828;49.956;8.636;2023-05-20T01:24:45;36.54;34.29;39.33;;
76100;Laerm;64828;49.956;8.636;2023-05-20T01:25:08;35.96;33.82;38.46;;
76100;Laerm;64828;49.956;8.636;2023-05-20T01:25:23;35.89;34.22;37.90;;
76100;Laerm;64828;49.956;8.636;2023-05-20T01:25:40;35.28;33.46;36.80;;
76100;Laerm;64828;49.956;8.636;2023-05-20T01:25:56;35.28;33.76;37.09;;
76100;Laerm;64828;49.956;8.636;2023-05-20T01:26:12;35.25;33.53;37.04;;
76100;Laerm;64828;49.956;8.636;2023-05-20T01:26:28;35.11;33.67;36.71;;
76100;Laerm;64828;49.956;8.636;2023-05-20T01:26:43;35.20;33.71;37.04;;
76100;Laerm;64828;49.956;8.636;2023-05-20T01:27:02;35.20;33.14;37.05;;
76100;Laerm;64828;49.956;8.636;2023-05-20T01:27:21;35.14;33.44;37.28;;
76100;Laerm;64828;49.956;8.636;2023-05-20T01:27:37;35.21;33.49;40.44;;
76100;Laerm;64828;49.956;8.636;2023-05-20T01:27:55;34.84;33.21;36.88;;
76100;Laerm;64828;49.956;8.636;2023-05-20T01:28:12;34.52;33.07;36.18;;
76100;Laerm;64828;49.956;8.636;2023-05-20T01:28:36;34.53;32.88;36.48;;
76100;Laerm;64828;49.956;8.636;2023-05-20T01:28:53;34.54;33.06;36.19;;
76100;Laerm;64828;49.956;8.636;2023-05-20T01:29:12;34.58;33.06;36.18;;
76100;Laerm;64828;49.956;8.636;2023-05-20T01:29:28;34.73;33.16;44.41;;
76100;Laerm;64828;49.956;8.636;2023-05-20T01:29:43;34.63;32.87;36.95;;
76100;Laerm;64828;49.956;8.636;2023-05-20T01:30:00;34.84;33.32;36.69;;
76100;Laerm;64828;49.956;8.636;2023-05-20T01:30:17;35.24;33.28;40.47;;
76100;Laerm;64828;49.956;8.636;2023-05-20T01:30:41;35.06;33.34;37.48;;
76100;Laerm;64828;49.956;8.636;2023-05-20T01:31:00;35.34;33.31;38.11;;
76100;Laerm;64828;49.956;8.636;2023-05-20T01:31:26;35.34;33.58;38.22;;
76100;Laerm;64828;49.956;8.636;2023-05-20T01:31:46;35.37;33.56;37.70;;
76100;Laerm;64828;49.956;8.636;2023-05-20T01:32:23;36.72;34.46;40.40;;
76100;Laerm;64828;49.956;8.636;2023-05-20T01:32:45;35.44;33.68;38.54;;
76100;Laerm;64828;49.956;8.636;2023-05-20T01:33:10;35.48;33.68;38.10;;
76100;Laerm;64828;49.956;8.636;2023-05-20T01:33:28;35.69;33.99;38.26;;
76100;Laerm;64828;49.956;8.636;2023-05-20T01:33:51;35.98;33.84;39.31;;
76100;Laerm;64828;49.956;8.636;2023-05-20T01:34:09;35.85;34.07;37.94;;
76100;Laerm;64828;49.956;8.636;2023-05-20T01:34:26;36.02;34.36;37.72;;
76100;Laerm;64828;49.956;8.636;2023-05-20T01:34:42;36.09;34.19;38.27;;
76100;Laerm;64828;49.956;8.636;2023-05-20T01:35:00;35.92;34.02;38.10;;
76100;Laerm;64828;49.956;8.636;2023-05-20T01:35:17;36.65;33.57;43.32;;
76100;Laerm;64828;49.956;8.636;2023-05-20T01:35:33;35.40;33.72;41.99;;
76100;Laerm;64828;49.956;8.636;2023-05-20T01:35:50;35.41;33.41;37.38;;